Adriatic Id — VRFP6 — position and weather

sailwx.info

Track history (hours):
 
Tides and Currents Weather Stations Pressure Air Temp Water Temp Dewpoint Dewpoint Depression Visibility Wind Speed Wind Dir Waves Ship Positions

Adriatic Id

Last reported at 2016-Feb-05 05:14 UTC. Time now 2016-Feb-10 12:49 UTC.
Position N 24°17' E 118°33'.

Length 158 m; draft 9.1 m.

Type: Cargo ship. MMSI: 477559800.

Date/timePositionNaut miles runAvg speedWind from/ knotsBaromVisibWave heightAir tempDewpointWater temp
2016-Feb-05 05:14N 24°17' E 118°33'710.0
2016-Feb-05 04:31N 24°17' E 118°25'1010.4
2016-Feb-05 03:33N 24°19' E 118°14'1110.7
2016-Feb-05 02:33N 24°25' E 118°04'2 1.6
2016-Feb-05 01:32N 24°25' E 118°03'0 0.0
2016-Feb-05 00:32N 24°25' E 118°03'0 0.0
2016-Feb-04 23:32N 24°25' E 118°03'0 0.0
2016-Feb-04 22:32N 24°25' E 118°03'0 0.0
2016-Feb-04 21:32N 24°25' E 118°03'0 0.0
2016-Feb-04 20:32N 24°25' E 118°03'0 0.0
2016-Feb-04 19:32N 24°25' E 118°03'0 0.0
2016-Feb-04 18:32N 24°25' E 118°03'0 0.0
2016-Feb-04 17:32N 24°25' E 118°03'0 0.0
2016-Feb-04 16:29N 24°25' E 118°03'0 0.0
2016-Feb-04 15:32N 24°25' E 118°03'0 0.0
2016-Feb-04 14:32N 24°25' E 118°03'0 0.0
2016-Feb-04 13:32N 24°25' E 118°03'0 0.0
2016-Feb-04 12:32N 24°25' E 118°03'0 0.0
2016-Feb-04 11:32N 24°25' E 118°03'0 0.0
2016-Feb-04 10:32N 24°25' E 118°03'0 0.0
2016-Feb-04 09:32N 24°25' E 118°03'0 0.0
2016-Feb-04 08:32N 24°25' E 118°03'0 0.0
2016-Feb-04 07:32N 24°25' E 118°03'0 0.0
2016-Feb-04 06:32N 24°25' E 118°03'0 0.0
2016-Feb-04 05:26N 24°25' E 118°03'0 0.0
2016-Feb-04 04:29N 24°25' E 118°03'5 5.1
2016-Feb-04 03:33N 24°23' E 118°07'1211.0
2016-Feb-04 02:30N 24°19' E 118°19'1413.9
2016-Feb-04 01:32N 24°18' E 118°34'3314.3
2016-Feb-03 23:13N 24°31' E 119°07'913.5
2016-Feb-03 22:33N 24°35' E 119°16'  
2016-Feb-01 00:25N 26°03' E 119°30'0 0.0
2016-Jan-31 23:31N 26°03' E 119°30'0 0.0
2016-Jan-31 22:31N 26°03' E 119°30'0 0.0
2016-Jan-31 21:31N 26°03' E 119°30'0 0.0
2016-Jan-31 20:25N 26°03' E 119°30'0 0.0
2016-Jan-31 19:31N 26°03' E 119°30'0 0.0
2016-Jan-31 18:31N 26°03' E 119°30'0 0.0
2016-Jan-31 17:31N 26°03' E 119°30'0 0.0
2016-Jan-31 16:31N 26°03' E 119°30'0 0.0
2016-Jan-31 15:31N 26°03' E 119°30'0 0.0
2016-Jan-31 14:31N 26°03' E 119°30'0 0.0
2016-Jan-31 13:31N 26°03' E 119°30'0 0.0
2016-Jan-31 12:19N 26°03' E 119°30'0 0.0
2016-Jan-31 11:31N 26°03' E 119°30'0 0.0
2016-Jan-31 10:19N 26°03' E 119°30'0 0.0
2016-Jan-31 09:33N 26°03' E 119°30'10 8.0
2016-Jan-31 08:20N 26°07' E 119°40'  
2016-Jan-28 00:29N 26°03' E 119°30'0 0.0
2016-Jan-27 23:29N 26°03' E 119°30'0 0.0
2016-Jan-27 22:29N 26°03' E 119°30'0 0.0
2016-Jan-27 21:29N 26°03' E 119°30'0 0.0
2016-Jan-27 19:11N 26°03' E 119°30'0 0.0
2016-Jan-27 18:29N 26°03' E 119°30'0 0.0
2016-Jan-27 17:23N 26°03' E 119°30'0 0.0
2016-Jan-27 16:29N 26°03' E 119°30'0 0.0
2016-Jan-27 15:29N 26°03' E 119°30'0 0.0
2016-Jan-27 13:23N 26°03' E 119°30'0 0.0
2016-Jan-27 12:23N 26°03' E 119°30'0 0.0
2016-Jan-27 11:29N 26°03' E 119°30'0 0.0
2016-Jan-27 10:29N 26°03' E 119°30'0 0.0
2016-Jan-27 09:28N 26°03' E 119°30'  
Track history (hours):
 
Tides and Currents Weather Stations Pressure Air Temp Water Temp Dewpoint Dewpoint Depression Visibility Wind Speed Wind Dir Waves Ship Positions

Adriatic Id

Last reported at 2016-Feb-05 05:14 UTC. Time now 2016-Feb-10 12:49 UTC.
Position N 24°17' E 118°33'.

Length 158 m; draft 9.1 m.

Type: Cargo ship. MMSI: 477559800.

Date/timePositionNaut miles runAvg speedWind from/ knotsBaromVisibWave heightAir tempDewpointWater temp
2016-Feb-05 05:14N 24°17' E 118°33'710.0
2016-Feb-05 04:31N 24°17' E 118°25'1010.4
2016-Feb-05 03:33N 24°19' E 118°14'1110.7
2016-Feb-05 02:33N 24°25' E 118°04'2 1.6
2016-Feb-05 01:32N 24°25' E 118°03'0 0.0
2016-Feb-05 00:32N 24°25' E 118°03'0 0.0
2016-Feb-04 23:32N 24°25' E 118°03'0 0.0
2016-Feb-04 22:32N 24°25' E 118°03'0 0.0
2016-Feb-04 21:32N 24°25' E 118°03'0 0.0
2016-Feb-04 20:32N 24°25' E 118°03'0 0.0
2016-Feb-04 19:32N 24°25' E 118°03'0 0.0
2016-Feb-04 18:32N 24°25' E 118°03'0 0.0
2016-Feb-04 17:32N 24°25' E 118°03'0 0.0
2016-Feb-04 16:29N 24°25' E 118°03'0 0.0
2016-Feb-04 15:32N 24°25' E 118°03'0 0.0
2016-Feb-04 14:32N 24°25' E 118°03'0 0.0
2016-Feb-04 13:32N 24°25' E 118°03'0 0.0
2016-Feb-04 12:32N 24°25' E 118°03'0 0.0
2016-Feb-04 11:32N 24°25' E 118°03'0 0.0
2016-Feb-04 10:32N 24°25' E 118°03'0 0.0
2016-Feb-04 09:32N 24°25' E 118°03'0 0.0
2016-Feb-04 08:32N 24°25' E 118°03'0 0.0
2016-Feb-04 07:32N 24°25' E 118°03'0 0.0
2016-Feb-04 06:32N 24°25' E 118°03'0 0.0
2016-Feb-04 05:26N 24°25' E 118°03'0 0.0
2016-Feb-04 04:29N 24°25' E 118°03'5 5.1
2016-Feb-04 03:33N 24°23' E 118°07'1211.0
2016-Feb-04 02:30N 24°19' E 118°19'1413.9
2016-Feb-04 01:32N 24°18' E 118°34'3314.3
2016-Feb-03 23:13N 24°31' E 119°07'913.5
2016-Feb-03 22:33N 24°35' E 119°16'  
2016-Feb-01 00:25N 26°03' E 119°30'0 0.0
2016-Jan-31 23:31N 26°03' E 119°30'0 0.0
2016-Jan-31 22:31N 26°03' E 119°30'0 0.0
2016-Jan-31 21:31N 26°03' E 119°30'0 0.0
2016-Jan-31 20:25N 26°03' E 119°30'0 0.0
2016-Jan-31 19:31N 26°03' E 119°30'0 0.0
2016-Jan-31 18:31N 26°03' E 119°30'0 0.0
2016-Jan-31 17:31N 26°03' E 119°30'0 0.0
2016-Jan-31 16:31N 26°03' E 119°30'0 0.0
2016-Jan-31 15:31N 26°03' E 119°30'0 0.0
2016-Jan-31 14:31N 26°03' E 119°30'0 0.0
2016-Jan-31 13:31N 26°03' E 119°30'0 0.0
2016-Jan-31 12:19N 26°03' E 119°30'0 0.0
2016-Jan-31 11:31N 26°03' E 119°30'0 0.0
2016-Jan-31 10:19N 26°03' E 119°30'0 0.0
2016-Jan-31 09:33N 26°03' E 119°30'10 8.0
2016-Jan-31 08:20N 26°07' E 119°40'  
2016-Jan-28 00:29N 26°03' E 119°30'0 0.0
2016-Jan-27 23:29N 26°03' E 119°30'0 0.0
2016-Jan-27 22:29N 26°03' E 119°30'0 0.0
2016-Jan-27 21:29N 26°03' E 119°30'0 0.0
2016-Jan-27 19:11N 26°03' E 119°30'0 0.0
2016-Jan-27 18:29N 26°03' E 119°30'0 0.0
2016-Jan-27 17:23N 26°03' E 119°30'0 0.0
2016-Jan-27 16:29N 26°03' E 119°30'0 0.0
2016-Jan-27 15:29N 26°03' E 119°30'0 0.0
2016-Jan-27 13:23N 26°03' E 119°30'0 0.0
2016-Jan-27 12:23N 26°03' E 119°30'0 0.0
2016-Jan-27 11:29N 26°03' E 119°30'0 0.0
2016-Jan-27 10:29N 26°03' E 119°30'0 0.0
2016-Jan-27 09:28N 26°03' E 119°30'  

Dump ship's entire track history